TimeCST,TemperatureF,Dew PointF,Humidity,Sea Level PressureIn,VisibilityMPH,Wind Direction,Wind SpeedMPH,Gust SpeedMPH,PrecipitationIn,Events,Conditions,WindDirDegrees,DateUTC
12:13 AM,19.4,17.6,93,29.93,10.0,SSW,12.7,-,N/A,,Overcast,210,2013-01-02 06:13:00
12:34 AM,19.4,17.6,93,29.92,7.0,SSW,11.5,-,N/A,,Overcast,210,2013-01-02 06:34:00
12:53 AM,19.4,17.6,93,29.91,7.0,SSW,12.7,-,N/A,,Overcast,210,2013-01-02 06:53:00
1:13 AM,15.8,15.8,100,29.91,7.0,SSW,8.1,-,N/A,,Mostly Cloudy,210,2013-01-02 07:13:00
1:34 AM,12.2,12.2,100,29.90,7.0,SSW,6.9,-,N/A,,Clear,210,2013-01-02 07:34:00
1:53 AM,12.2,10.4,92,29.90,7.0,SSW,4.6,-,N/A,,Clear,200,2013-01-02 07:53:00
2:13 AM,10.4,10.4,100,29.89,7.0,South,6.9,-,N/A,,Clear,190,2013-01-02 08:13:00
2:33 AM,8.6,8.6,100,29.89,7.0,SSW,8.1,-,N/A,,Clear,200,2013-01-02 08:33:00
3:13 AM,8.6,6.8,92,29.89,7.0,South,8.1,-,N/A,,Clear,190,2013-01-02 09:13:00
3:34 AM,8.6,6.8,92,29.89,7.0,SSW,5.8,-,N/A,,Clear,210,2013-01-02 09:34:00
3:53 AM,8.6,6.8,92,29.89,5.0,SW,3.5,-,N/A,,Clear,220,2013-01-02 09:53:00
4:13 AM,8.6,6.8,92,29.88,5.0,South,6.9,-,N/A,,Clear,190,2013-01-02 10:13:00
4:34 AM,8.6,6.8,92,29.87,5.0,South,6.9,-,N/A,,Clear,190,2013-01-02 10:34:00
4:53 AM,8.6,6.8,92,29.88,5.0,SSW,3.5,-,N/A,,Mostly Cloudy,200,2013-01-02 10:53:00
5:14 AM,10.4,8.6,92,29.88,5.0,South,5.8,-,N/A,,Overcast,190,2013-01-02 11:14:00
5:33 AM,12.2,10.4,92,29.88,5.0,SSW,5.8,-,N/A,,Overcast,210,2013-01-02 11:33:00
6:14 AM,12.2,10.4,92,29.87,4.0,SSW,4.6,-,N/A,Snow,Light Snow,210,2013-01-02 12:14:00
6:33 AM,12.2,10.4,92,29.87,7.0,SSW,5.8,-,N/A,,Overcast,200,2013-01-02 12:33:00
6:53 AM,12.2,10.4,92,29.87,7.0,South,3.5,-,N/A,Snow,Light Snow,190,2013-01-02 12:53:00
7:14 AM,12.2,10.4,92,29.87,5.0,South,3.5,-,N/A,Snow,Light Snow,190,2013-01-02 13:14:00
7:33 AM,14.0,12.2,93,29.87,4.0,South,4.6,-,N/A,Snow,Light Snow,190,2013-01-02 13:33:00
7:53 AM,14.0,12.2,93,29.87,4.0,SSW,4.6,-,N/A,Snow,Light Snow,200,2013-01-02 13:53:00
8:13 AM,14.0,12.2,93,29.87,2.5,SSW,5.8,-,N/A,Snow,Light Snow,200,2013-01-02 14:13:00
8:33 AM,14.0,12.2,93,29.87,2.0,South,5.8,-,N/A,,Overcast,190,2013-01-02 14:33:00
9:13 AM,14.0,12.2,93,29.88,2.0,South,5.8,-,N/A,Snow,Light Snow,190,2013-01-02 15:13:00
9:33 AM,15.8,12.2,86,29.89,4.0,SSW,5.8,-,N/A,Snow,Light Snow,200,2013-01-02 15:33:00
9:54 AM,15.8,14.0,93,29.89,3.0,South,5.8,-,N/A,,Overcast,190,2013-01-02 15:54:00
10:13 AM,17.6,15.8,93,29.90,2.5,SSW,5.8,-,N/A,,Overcast,200,2013-01-02 16:13:00
10:33 AM,17.6,15.8,93,29.90,2.5,SSW,6.9,-,N/A,,Overcast,210,2013-01-02 16:33:00
10:54 AM,17.6,17.6,100,29.90,2.0,SSW,8.1,-,N/A,,Overcast,200,2013-01-02 16:54:00
11:13 AM,17.6,17.6,100,29.90,2.0,SW,6.9,-,N/A,,Overcast,220,2013-01-02 17:13:00
11:33 AM,19.4,19.4,100,29.90,2.5,WSW,6.9,-,N/A,,Overcast,240,2013-01-02 17:33:00
11:54 AM,19.4,17.6,93,29.89,2.5,West,8.1,-,N/A,,Overcast,260,2013-01-02 17:54:00
12:13 PM,19.4,19.4,100,29.89,3.0,West,6.9,-,N/A,,Overcast,260,2013-01-02 18:13:00
12:33 PM,21.2,19.4,93,29.88,3.0,West,8.1,-,N/A,,Overcast,260,2013-01-02 18:33:00
12:54 PM,21.2,21.2,100,29.88,5.0,West,6.9,-,N/A,,Overcast,270,2013-01-02 18:54:00
1:13 PM,23.0,21.2,93,29.89,7.0,West,8.1,-,N/A,,Overcast,280,2013-01-02 19:13:00
1:33 PM,23.0,21.2,93,29.90,7.0,West,9.2,-,N/A,,Overcast,270,2013-01-02 19:33:00
1:54 PM,21.2,21.2,100,29.90,7.0,West,6.9,-,N/A,,Overcast,270,2013-01-02 19:54:00
2:13 PM,23.0,21.2,93,29.90,7.0,West,5.8,-,N/A,,Overcast,270,2013-01-02 20:13:00
2:33 PM,23.0,21.2,93,29.91,7.0,West,3.5,-,N/A,,Overcast,260,2013-01-02 20:33:00
2:50 PM,23.0,21.2,93,29.92,7.0,West,4.6,-,N/A,,Overcast,270,2013-01-02 20:50:00
3:03 PM,24.8,23.0,93,29.93,10.0,WNW,8.1,-,N/A,,Overcast,290,2013-01-02 21:03:00